sensor_id;sensor_type;location;lat;lon;timestamp;P1;durP1;ratioP1;P2;durP2;ratioP2
25381;SDS011;16307;42.896;20.874;2022-07-03T00:00:09;12.40;;;6.28;;
25381;SDS011;16307;42.896;20.874;2022-07-03T00:02:59;12.75;;;7.38;;
25381;SDS011;16307;42.896;20.874;2022-07-03T00:05:45;14.15;;;7.57;;
25381;SDS011;16307;42.896;20.874;2022-07-03T00:08:31;11.00;;;7.22;;
25381;SDS011;16307;42.896;20.874;2022-07-03T00:11:17;10.50;;;7.40;;
25381;SDS011;16307;42.896;20.874;2022-07-03T00:14:03;9.93;;;7.90;;
25381;SDS011;16307;42.896;20.874;2022-07-03T00:16:49;8.18;;;6.55;;
25381;SDS011;16307;42.896;20.874;2022-07-03T00:19:35;16.50;;;7.55;;
25381;SDS011;16307;42.896;20.874;2022-07-03T00:22:21;10.50;;;7.25;;
25381;SDS011;16307;42.896;20.874;2022-07-03T00:25:10;8.52;;;6.45;;
25381;SDS011;16307;42.896;20.874;2022-07-03T00:27:57;10.50;;;7.10;;
25381;SDS011;16307;42.896;20.874;2022-07-03T00:30:44;12.43;;;6.97;;
25381;SDS011;16307;42.896;20.874;2022-07-03T00:33:32;11.73;;;6.72;;
25381;SDS011;16307;42.896;20.874;2022-07-03T00:36:20;13.02;;;7.05;;
25381;SDS011;16307;42.896;20.874;2022-07-03T00:39:06;13.38;;;6.35;;
25381;SDS011;16307;42.896;20.874;2022-07-03T00:42:02;9.40;;;6.68;;
25381;SDS011;16307;42.896;20.874;2022-07-03T00:44:50;12.93;;;7.20;;
25381;SDS011;16307;42.896;20.874;2022-07-03T00:47:40;10.77;;;6.68;;
25381;SDS011;16307;42.896;20.874;2022-07-03T00:50:33;10.95;;;6.80;;
25381;SDS011;16307;42.896;20.874;2022-07-03T00:53:32;12.15;;;6.25;;
25381;SDS011;16307;42.896;20.874;2022-07-03T00:56:28;16.25;;;7.43;;
25381;SDS011;16307;42.896;20.874;2022-07-03T00:59:16;11.68;;;6.38;;
25381;SDS011;16307;42.896;20.874;2022-07-03T01:02:03;12.90;;;6.82;;
25381;SDS011;16307;42.896;20.874;2022-07-03T01:11:28;9.70;;;7.00;;
25381;SDS011;16307;42.896;20.874;2022-07-03T01:17:37;10.55;;;6.95;;
25381;SDS011;16307;42.896;20.874;2022-07-03T01:20:27;10.40;;;7.35;;
25381;SDS011;16307;42.896;20.874;2022-07-03T01:23:24;10.55;;;6.47;;
25381;SDS011;16307;42.896;20.874;2022-07-03T01:26:28;11.90;;;6.45;;
25381;SDS011;16307;42.896;20.874;2022-07-03T01:29:18;12.88;;;6.90;;
25381;SDS011;16307;42.896;20.874;2022-07-03T01:32:08;13.68;;;7.63;;
25381;SDS011;16307;42.896;20.874;2022-07-03T01:34:55;11.30;;;6.75;;
25381;SDS011;16307;42.896;20.874;2022-07-03T01:37:42;8.55;;;6.38;;
25381;SDS011;16307;42.896;20.874;2022-07-03T01:40:31;12.90;;;7.25;;
25381;SDS011;16307;42.896;20.874;2022-07-03T01:43:18;13.07;;;6.82;;
25381;SDS011;16307;42.896;20.874;2022-07-03T01:46:04;10.85;;;5.88;;
25381;SDS011;16307;42.896;20.874;2022-07-03T01:48:50;13.77;;;6.97;;
25381;SDS011;16307;42.896;20.874;2022-07-03T02:31:04;10.25;;;7.28;;
25381;SDS011;16307;42.896;20.874;2022-07-03T02:33:52;12.75;;;6.28;;
25381;SDS011;16307;42.896;20.874;2022-07-03T02:36:46;14.25;;;6.43;;
25381;SDS011;16307;42.896;20.874;2022-07-03T02:39:38;11.18;;;6.65;;
25381;SDS011;16307;42.896;20.874;2022-07-03T02:45:48;11.38;;;7.15;;
25381;SDS011;16307;42.896;20.874;2022-07-03T02:51:31;10.00;;;6.60;;
25381;SDS011;16307;42.896;20.874;2022-07-03T02:54:20;19.42;;;6.97;;
25381;SDS011;16307;42.896;20.874;2022-07-03T02:57:06;10.45;;;7.32;;
25381;SDS011;16307;42.896;20.874;2022-07-03T02:59:55;13.45;;;7.07;;
25381;SDS011;16307;42.896;20.874;2022-07-03T03:02:52;14.23;;;7.47;;
25381;SDS011;16307;42.896;20.874;2022-07-03T03:05:49;14.52;;;7.78;;
25381;SDS011;16307;42.896;20.874;2022-07-03T03:08:45;11.18;;;6.65;;
25381;SDS011;16307;42.896;20.874;2022-07-03T03:14:30;14.27;;;7.32;;
25381;SDS011;16307;42.896;20.874;2022-07-03T03:17:24;8.18;;;6.55;;
25381;SDS011;16307;42.896;20.874;2022-07-03T03:20:14;10.32;;;6.47;;
25381;SDS011;16307;42.896;20.874;2022-07-03T03:23:16;12.80;;;7.60;;
25381;SDS011;16307;42.896;20.874;2022-07-03T03:26:03;14.07;;;6.85;;
25381;SDS011;16307;42.896;20.874;2022-07-03T03:28:50;13.15;;;7.85;;
25381;SDS011;16307;42.896;20.874;2022-07-03T03:31:37;12.77;;;7.28;;
25381;SDS011;16307;42.896;20.874;2022-07-03T03:34:23;12.20;;;6.95;;
25381;SDS011;16307;42.896;20.874;2022-07-03T03:37:10;12.77;;;6.93;;
25381;SDS011;16307;42.896;20.874;2022-07-03T03:39:56;14.02;;;6.82;;
25381;SDS011;16307;42.896;20.874;2022-07-03T03:42:43;12.98;;;7.18;;
25381;SDS011;16307;42.896;20.874;2022-07-03T03:45:29;12.95;;;7.10;;
25381;SDS011;16307;42.896;20.874;2022-07-03T03:48:15;12.80;;;6.47;;
25381;SDS011;16307;42.896;20.874;2022-07-03T03:51:02;11.98;;;6.95;;
25381;SDS011;16307;42.896;20.874;2022-07-03T03:53:48;10.05;;;6.75;;
25381;SDS011;16307;42.896;20.874;2022-07-03T03:56:37;10.85;;;6.68;;
25381;SDS011;16307;42.896;20.874;2022-07-03T03:59:23;11.93;;;6.63;;
25381;SDS011;16307;42.896;20.874;2022-07-03T04:02:09;9.98;;;6.53;;
25381;SDS011;16307;42.896;20.874;2022-07-03T04:04:54;13.85;;;6.60;;
25381;SDS011;16307;42.896;20.874;2022-07-03T04:07:40;9.73;;;6.80;;
25381;SDS011;16307;42.896;20.874;2022-07-03T04:10:26;9.20;;;6.70;;
25381;SDS011;16307;42.896;20.874;2022-07-03T04:13:12;10.75;;;6.93;;
25381;SDS011;16307;42.896;20.874;2022-07-03T04:15:59;8.25;;;6.43;;
25381;SDS011;16307;42.896;20.874;2022-07-03T04:18:45;8.13;;;6.57;;
25381;SDS011;16307;42.896;20.874;2022-07-03T04:21:31;13.70;;;7.20;;
25381;SDS011;16307;42.896;20.874;2022-07-03T04:24:17;12.10;;;6.28;;
25381;SDS011;16307;42.896;20.874;2022-07-03T04:27:03;9.23;;;6.70;;
25381;SDS011;16307;42.896;20.874;2022-07-03T04:29:50;13.10;;;7.07;;
25381;SDS011;16307;42.896;20.874;2022-07-03T04:32:36;10.50;;;6.30;;
25381;SDS011;16307;42.896;20.874;2022-07-03T04:35:22;11.82;;;6.03;;
25381;SDS011;16307;42.896;20.874;2022-07-03T04:38:08;10.38;;;6.50;;
25381;SDS011;16307;42.896;20.874;2022-07-03T04:40:54;9.02;;;6.40;;
25381;SDS011;16307;42.896;20.874;2022-07-03T04:43:40;11.07;;;6.25;;
25381;SDS011;16307;42.896;20.874;2022-07-03T04:46:26;11.52;;;7.13;;
25381;SDS011;16307;42.896;20.874;2022-07-03T04:49:12;11.65;;;6.20;;
25381;SDS011;16307;42.896;20.874;2022-07-03T04:51:58;8.27;;;6.03;;
25381;SDS011;16307;42.896;20.874;2022-07-03T04:54:44;11.45;;;6.30;;
25381;SDS011;16307;42.896;20.874;2022-07-03T04:57:30;10.13;;;7.28;;
25381;SDS011;16307;42.896;20.874;2022-07-03T05:00:16;14.57;;;7.03;;
25381;SDS011;16307;42.896;20.874;2022-07-03T05:03:02;7.47;;;6.00;;
25381;SDS011;16307;42.896;20.874;2022-07-03T05:05:48;12.75;;;6.63;;
25381;SDS011;16307;42.896;20.874;2022-07-03T05:08:34;9.90;;;6.75;;
25381;SDS011;16307;42.896;20.874;2022-07-03T05:11:20;10.27;;;6.22;;
25381;SDS011;16307;42.896;20.874;2022-07-03T05:14:06;14.00;;;6.15;;
25381;SDS011;16307;42.896;20.874;2022-07-03T05:16:53;10.88;;;6.43;;
25381;SDS011;16307;42.896;20.874;2022-07-03T05:19:39;13.65;;;6.88;;
25381;SDS011;16307;42.896;20.874;2022-07-03T05:22:25;11.68;;;6.15;;
25381;SDS011;16307;42.896;20.874;2022-07-03T05:25:11;9.85;;;6.30;;
25381;SDS011;16307;42.896;20.874;2022-07-03T05:27:57;13.35;;;6.40;;
25381;SDS011;16307;42.896;20.874;2022-07-03T05:30:44;11.50;;;6.65;;
25381;SDS011;16307;42.896;20.874;2022-07-03T05:33:31;15.82;;;6.93;;
25381;SDS011;16307;42.896;20.874;2022-07-03T05:36:16;11.85;;;7.07;;
25381;SDS011;16307;42.896;20.874;2022-07-03T05:39:02;9.77;;;6.85;;
25381;SDS011;16307;42.896;20.874;2022-07-03T05:42:06;11.00;;;6.80;;
25381;SDS011;16307;42.896;20.874;2022-07-03T05:44:52;14.65;;;6.60;;
25381;SDS011;16307;42.896;20.874;2022-07-03T05:47:39;13.05;;;6.40;;
25381;SDS011;16307;42.896;20.874;2022-07-03T05:50:26;15.38;;;6.15;;
25381;SDS011;16307;42.896;20.874;2022-07-03T05:53:12;15.40;;;6.60;;
25381;SDS011;16307;42.896;20.874;2022-07-03T05:55:58;11.07;;;6.35;;
25381;SDS011;16307;42.896;20.874;2022-07-03T05:58:44;10.25;;;5.90;;
25381;SDS011;16307;42.896;20.874;2022-07-03T06:01:30;11.77;;;6.10;;
25381;SDS011;16307;42.896;20.874;2022-07-03T06:04:16;12.52;;;5.60;;
25381;SDS011;16307;42.896;20.874;2022-07-03T06:07:02;10.52;;;6.10;;
25381;SDS011;16307;42.896;20.874;2022-07-03T06:09:48;9.45;;;5.68;;
25381;SDS011;16307;42.896;20.874;2022-07-03T06:12:34;10.13;;;5.95;;
25381;SDS011;16307;42.896;20.874;2022-07-03T06:15:20;10.82;;;6.05;;
25381;SDS011;16307;42.896;20.874;2022-07-03T07:04:09;12.13;;;6.90;;
25381;SDS011;16307;42.896;20.874;2022-07-03T07:06:55;14.25;;;7.32;;
25381;SDS011;16307;42.896;20.874;2022-07-03T07:09:41;11.65;;;6.05;;
25381;SDS011;16307;42.896;20.874;2022-07-03T07:12:28;15.50;;;6.93;;
25381;SDS011;16307;42.896;20.874;2022-07-03T07:15:14;13.02;;;8.57;;
25381;SDS011;16307;42.896;20.874;2022-07-03T07:18:00;14.98;;;7.03;;
25381;SDS011;16307;42.896;20.874;2022-07-03T07:20:46;15.20;;;7.72;;
25381;SDS011;16307;42.896;20.874;2022-07-03T07:23:33;15.07;;;8.35;;
25381;SDS011;16307;42.896;20.874;2022-07-03T07:26:19;12.07;;;7.32;;
25381;SDS011;16307;42.896;20.874;2022-07-03T07:29:05;22.63;;;8.77;;
25381;SDS011;16307;42.896;20.874;2022-07-03T07:31:52;15.63;;;9.15;;
25381;SDS011;16307;42.896;20.874;2022-07-03T07:34:38;12.77;;;7.70;;
25381;SDS011;16307;42.896;20.874;2022-07-03T07:37:24;13.88;;;7.85;;
25381;SDS011;16307;42.896;20.874;2022-07-03T07:40:10;11.88;;;7.65;;
25381;SDS011;16307;42.896;20.874;2022-07-03T07:42:57;14.15;;;7.72;;
25381;SDS011;16307;42.896;20.874;2022-07-03T07:45:43;11.48;;;8.48;;
25381;SDS011;16307;42.896;20.874;2022-07-03T07:48:28;13.25;;;7.20;;
25381;SDS011;16307;42.896;20.874;2022-07-03T07:51:15;12.18;;;7.05;;
25381;SDS011;16307;42.896;20.874;2022-07-03T07:54:01;9.25;;;6.20;;
25381;SDS011;16307;42.896;20.874;2022-07-03T07:56:47;18.02;;;7.60;;
25381;SDS011;16307;42.896;20.874;2022-07-03T07:59:33;11.10;;;5.82;;
25381;SDS011;16307;42.896;20.874;2022-07-03T08:02:26;8.23;;;5.82;;
25381;SDS011;16307;42.896;20.874;2022-07-03T08:05:31;12.60;;;7.82;;
25381;SDS011;16307;42.896;20.874;2022-07-03T08:08:24;13.05;;;6.20;;
25381;SDS011;16307;42.896;20.874;2022-07-03T08:11:10;10.23;;;6.25;;
25381;SDS011;16307;42.896;20.874;2022-07-03T08:13:56;10.07;;;6.35;;
25381;SDS011;16307;42.896;20.874;2022-07-03T08:16:42;14.25;;;6.80;;
25381;SDS011;16307;42.896;20.874;2022-07-03T08:19:30;9.07;;;6.50;;
25381;SDS011;16307;42.896;20.874;2022-07-03T08:22:16;14.05;;;6.68;;
25381;SDS011;16307;42.896;20.874;2022-07-03T08:25:03;11.60;;;6.40;;
25381;SDS011;16307;42.896;20.874;2022-07-03T08:27:49;8.95;;;6.45;;
25381;SDS011;16307;42.896;20.874;2022-07-03T08:30:35;9.18;;;6.35;;
25381;SDS011;16307;42.896;20.874;2022-07-03T08:33:21;11.98;;;6.53;;
25381;SDS011;16307;42.896;20.874;2022-07-03T08:36:07;11.68;;;6.53;;
25381;SDS011;16307;42.896;20.874;2022-07-03T08:38:53;11.40;;;6.65;;
25381;SDS011;16307;42.896;20.874;2022-07-03T08:41:39;12.45;;;6.85;;
25381;SDS011;16307;42.896;20.874;2022-07-03T08:44:26;11.15;;;6.53;;
25381;SDS011;16307;42.896;20.874;2022-07-03T08:47:12;8.68;;;5.80;;
25381;SDS011;16307;42.896;20.874;2022-07-03T08:50:00;11.13;;;6.22;;
25381;SDS011;16307;42.896;20.874;2022-07-03T08:52:48;12.85;;;7.07;;
25381;SDS011;16307;42.896;20.874;2022-07-03T08:55:34;11.63;;;6.72;;
25381;SDS011;16307;42.896;20.874;2022-07-03T08:58:23;11.40;;;6.32;;
25381;SDS011;16307;42.896;20.874;2022-07-03T09:01:22;8.85;;;6.10;;
25381;SDS011;16307;42.896;20.874;2022-07-03T09:04:10;13.80;;;5.95;;
25381;SDS011;16307;42.896;20.874;2022-07-03T09:06:58;11.13;;;6.05;;
25381;SDS011;16307;42.896;20.874;2022-07-03T09:09:44;6.65;;;5.40;;
25381;SDS011;16307;42.896;20.874;2022-07-03T09:12:31;8.32;;;5.95;;
25381;SDS011;16307;42.896;20.874;2022-07-03T09:15:18;11.93;;;5.43;;
25381;SDS011;16307;42.896;20.874;2022-07-03T09:18:05;10.38;;;6.18;;
25381;SDS011;16307;42.896;20.874;2022-07-03T09:20:52;13.10;;;6.13;;
25381;SDS011;16307;42.896;20.874;2022-07-03T09:23:48;11.63;;;6.75;;
25381;SDS011;16307;42.896;20.874;2022-07-03T09:26:34;12.13;;;7.53;;
25381;SDS011;16307;42.896;20.874;2022-07-03T09:29:20;12.52;;;7.20;;
25381;SDS011;16307;42.896;20.874;2022-07-03T09:32:06;7.97;;;5.57;;
25381;SDS011;16307;42.896;20.874;2022-07-03T09:38:04;11.93;;;6.23;;
25381;SDS011;16307;42.896;20.874;2022-07-03T09:40:51;12.63;;;5.80;;
25381;SDS011;16307;42.896;20.874;2022-07-03T09:43:42;15.48;;;7.05;;
25381;SDS011;16307;42.896;20.874;2022-07-03T09:46:28;16.40;;;6.35;;
25381;SDS011;16307;42.896;20.874;2022-07-03T09:49:14;8.73;;;5.68;;
25381;SDS011;16307;42.896;20.874;2022-07-03T09:52:00;9.57;;;6.22;;
25381;SDS011;16307;42.896;20.874;2022-07-03T09:54:46;11.48;;;5.47;;
25381;SDS011;16307;42.896;20.874;2022-07-03T09:57:32;8.45;;;5.15;;
25381;SDS011;16307;42.896;20.874;2022-07-03T10:00:27;14.82;;;5.95;;
25381;SDS011;16307;42.896;20.874;2022-07-03T10:03:14;14.88;;;6.07;;
25381;SDS011;16307;42.896;20.874;2022-07-03T10:06:06;11.82;;;5.63;;
25381;SDS011;16307;42.896;20.874;2022-07-03T10:08:52;11.15;;;5.70;;
25381;SDS011;16307;42.896;20.874;2022-07-03T10:11:38;10.88;;;4.82;;
25381;SDS011;16307;42.896;20.874;2022-07-03T10:14:24;8.65;;;5.47;;
25381;SDS011;16307;42.896;20.874;2022-07-03T10:17:12;9.80;;;6.60;;
25381;SDS011;16307;42.896;20.874;2022-07-03T10:20:05;9.93;;;5.30;;
25381;SDS011;16307;42.896;20.874;2022-07-03T10:22:52;10.50;;;5.40;;
25381;SDS011;16307;42.896;20.874;2022-07-03T10:25:42;8.98;;;5.10;;
25381;SDS011;16307;42.896;20.874;2022-07-03T10:28:29;11.70;;;5.22;;
25381;SDS011;16307;42.896;20.874;2022-07-03T10:31:16;8.52;;;5.85;;
25381;SDS011;16307;42.896;20.874;2022-07-03T10:34:02;11.15;;;4.72;;
25381;SDS011;16307;42.896;20.874;2022-07-03T10:36:53;7.05;;;4.70;;
25381;SDS011;16307;42.896;20.874;2022-07-03T10:39:56;9.93;;;5.53;;
25381;SDS011;16307;42.896;20.874;2022-07-03T10:46:44;13.00;;;5.22;;
25381;SDS011;16307;42.896;20.874;2022-07-03T10:49:30;12.13;;;5.18;;
25381;SDS011;16307;42.896;20.874;2022-07-03T10:52:19;5.72;;;4.35;;
25381;SDS011;16307;42.896;20.874;2022-07-03T10:55:04;12.18;;;5.93;;
25381;SDS011;16307;42.896;20.874;2022-07-03T10:58:08;9.88;;;5.15;;
25381;SDS011;16307;42.896;20.874;2022-07-03T11:00:55;10.32;;;5.13;;
25381;SDS011;16307;42.896;20.874;2022-07-03T11:03:54;7.68;;;4.90;;
25381;SDS011;16307;42.896;20.874;2022-07-03T11:09:33;10.60;;;5.68;;
25381;SDS011;16307;42.896;20.874;2022-07-03T11:12:49;9.40;;;4.47;;
25381;SDS011;16307;42.896;20.874;2022-07-03T11:15:44;9.20;;;5.47;;
25381;SDS011;16307;42.896;20.874;2022-07-03T11:18:35;9.57;;;5.13;;
25381;SDS011;16307;42.896;20.874;2022-07-03T11:21:21;9.07;;;4.47;;
25381;SDS011;16307;42.896;20.874;2022-07-03T11:27:13;9.05;;;5.18;;
25381;SDS011;16307;42.896;20.874;2022-07-03T11:30:02;10.77;;;6.40;;
25381;SDS011;16307;42.896;20.874;2022-07-03T11:32:49;8.95;;;5.85;;
25381;SDS011;16307;42.896;20.874;2022-07-03T11:35:47;10.07;;;4.93;;
25381;SDS011;16307;42.896;20.874;2022-07-03T11:38:40;7.00;;;4.93;;
25381;SDS011;16307;42.896;20.874;2022-07-03T11:41:28;6.13;;;4.30;;
25381;SDS011;16307;42.896;20.874;2022-07-03T11:44:20;11.43;;;3.83;;
25381;SDS011;16307;42.896;20.874;2022-07-03T11:47:06;8.05;;;4.05;;
25381;SDS011;16307;42.896;20.874;2022-07-03T11:49:53;8.90;;;4.57;;
25381;SDS011;16307;42.896;20.874;2022-07-03T11:52:39;7.05;;;3.65;;
25381;SDS011;16307;42.896;20.874;2022-07-03T11:55:25;9.18;;;4.38;;
25381;SDS011;16307;42.896;20.874;2022-07-03T11:58:11;6.45;;;3.67;;
25381;SDS011;16307;42.896;20.874;2022-07-03T12:00:57;6.25;;;3.80;;
25381;SDS011;16307;42.896;20.874;2022-07-03T12:03:43;9.13;;;3.88;;
25381;SDS011;16307;42.896;20.874;2022-07-03T12:09:32;9.05;;;4.40;;
25381;SDS011;16307;42.896;20.874;2022-07-03T12:12:23;7.10;;;4.07;;
25381;SDS011;16307;42.896;20.874;2022-07-03T12:15:09;5.40;;;3.80;;
25381;SDS011;16307;42.896;20.874;2022-07-03T12:17:55;4.70;;;3.45;;
25381;SDS011;16307;42.896;20.874;2022-07-03T12:20:41;6.68;;;3.78;;
25381;SDS011;16307;42.896;20.874;2022-07-03T12:23:27;9.27;;;3.90;;
25381;SDS011;16307;42.896;20.874;2022-07-03T12:26:14;4.75;;;3.40;;
25381;SDS011;16307;42.896;20.874;2022-07-03T12:29:04;4.68;;;3.72;;
25381;SDS011;16307;42.896;20.874;2022-07-03T12:31:51;5.63;;;4.00;;
25381;SDS011;16307;42.896;20.874;2022-07-03T12:34:38;6.15;;;3.63;;
25381;SDS011;16307;42.896;20.874;2022-07-03T12:37:35;10.85;;;3.63;;
25381;SDS011;16307;42.896;20.874;2022-07-03T12:40:23;8.65;;;4.05;;
25381;SDS011;16307;42.896;20.874;2022-07-03T12:43:10;7.53;;;4.07;;
25381;SDS011;16307;42.896;20.874;2022-07-03T12:45:55;6.15;;;3.90;;
25381;SDS011;16307;42.896;20.874;2022-07-03T12:48:52;8.10;;;4.25;;
25381;SDS011;16307;42.896;20.874;2022-07-03T12:51:43;5.43;;;4.10;;
25381;SDS011;16307;42.896;20.874;2022-07-03T12:54:34;6.93;;;3.80;;
25381;SDS011;16307;42.896;20.874;2022-07-03T12:57:21;6.70;;;4.03;;
25381;SDS011;16307;42.896;20.874;2022-07-03T13:00:27;5.45;;;3.92;;
25381;SDS011;16307;42.896;20.874;2022-07-03T13:03:30;7.18;;;3.95;;
25381;SDS011;16307;42.896;20.874;2022-07-03T13:06:26;8.18;;;4.15;;
25381;SDS011;16307;42.896;20.874;2022-07-03T13:09:12;7.93;;;3.60;;
25381;SDS011;16307;42.896;20.874;2022-07-03T13:11:58;5.30;;;3.83;;
25381;SDS011;16307;42.896;20.874;2022-07-03T13:14:54;7.18;;;4.10;;
25381;SDS011;16307;42.896;20.874;2022-07-03T13:20:38;7.00;;;4.25;;
25381;SDS011;16307;42.896;20.874;2022-07-03T13:23:24;7.75;;;4.65;;
25381;SDS011;16307;42.896;20.874;2022-07-03T13:26:10;11.65;;;4.40;;
25381;SDS011;16307;42.896;20.874;2022-07-03T13:28:56;4.72;;;3.85;;
25381;SDS011;16307;42.896;20.874;2022-07-03T13:31:42;12.60;;;3.90;;
25381;SDS011;16307;42.896;20.874;2022-07-03T13:34:28;6.07;;;3.95;;
25381;SDS011;16307;42.896;20.874;2022-07-03T13:37:14;10.63;;;4.03;;
25381;SDS011;16307;42.896;20.874;2022-07-03T13:40:00;14.75;;;4.80;;
25381;SDS011;16307;42.896;20.874;2022-07-03T13:42:47;19.75;;;4.35;;
25381;SDS011;16307;42.896;20.874;2022-07-03T13:45:33;16.08;;;4.88;;
25381;SDS011;16307;42.896;20.874;2022-07-03T13:48:20;13.50;;;4.22;;
25381;SDS011;16307;42.896;20.874;2022-07-03T13:51:06;12.90;;;4.05;;
25381;SDS011;16307;42.896;20.874;2022-07-03T13:53:52;5.40;;;4.13;;
25381;SDS011;16307;42.896;20.874;2022-07-03T13:56:38;6.82;;;4.38;;
25381;SDS011;16307;42.896;20.874;2022-07-03T13:59:24;7.22;;;4.70;;
25381;SDS011;16307;42.896;20.874;2022-07-03T14:02:10;8.90;;;5.35;;
25381;SDS011;16307;42.896;20.874;2022-07-03T14:04:56;8.77;;;5.07;;
25381;SDS011;16307;42.896;20.874;2022-07-03T14:07:44;10.65;;;5.47;;
25381;SDS011;16307;42.896;20.874;2022-07-03T14:10:30;6.82;;;5.07;;
25381;SDS011;16307;42.896;20.874;2022-07-03T14:13:16;7.57;;;5.47;;
25381;SDS011;16307;42.896;20.874;2022-07-03T14:16:02;7.78;;;5.85;;
25381;SDS011;16307;42.896;20.874;2022-07-03T14:18:48;8.95;;;5.70;;
25381;SDS011;16307;42.896;20.874;2022-07-03T14:21:34;7.65;;;5.53;;
25381;SDS011;16307;42.896;20.874;2022-07-03T14:24:20;9.95;;;5.63;;
25381;SDS011;16307;42.896;20.874;2022-07-03T14:27:06;7.65;;;5.45;;
25381;SDS011;16307;42.896;20.874;2022-07-03T14:30:11;7.63;;;4.70;;
25381;SDS011;16307;42.896;20.874;2022-07-03T14:33:16;12.75;;;6.32;;
25381;SDS011;16307;42.896;20.874;2022-07-03T14:36:02;8.00;;;5.72;;
25381;SDS011;16307;42.896;20.874;2022-07-03T14:38:49;7.97;;;4.35;;
25381;SDS011;16307;42.896;20.874;2022-07-03T14:41:35;7.45;;;4.75;;
25381;SDS011;16307;42.896;20.874;2022-07-03T14:44:21;10.40;;;3.90;;
25381;SDS011;16307;42.896;20.874;2022-07-03T14:47:09;5.43;;;4.03;;
25381;SDS011;16307;42.896;20.874;2022-07-03T14:49:56;8.50;;;5.18;;
25381;SDS011;16307;42.896;20.874;2022-07-03T14:52:42;7.45;;;4.57;;
25381;SDS011;16307;42.896;20.874;2022-07-03T14:55:31;7.97;;;4.18;;
25381;SDS011;16307;42.896;20.874;2022-07-03T14:58:19;9.27;;;4.35;;
25381;SDS011;16307;42.896;20.874;2022-07-03T15:01:08;6.40;;;4.10;;
25381;SDS011;16307;42.896;20.874;2022-07-03T15:03:57;7.82;;;4.20;;
25381;SDS011;16307;42.896;20.874;2022-07-03T15:06:46;8.57;;;4.10;;
25381;SDS011;16307;42.896;20.874;2022-07-03T15:09:32;8.10;;;4.07;;
25381;SDS011;16307;42.896;20.874;2022-07-03T15:12:22;8.15;;;3.83;;
25381;SDS011;16307;42.896;20.874;2022-07-03T15:15:13;10.43;;;4.45;;
25381;SDS011;16307;42.896;20.874;2022-07-03T15:18:00;6.55;;;3.90;;
25381;SDS011;16307;42.896;20.874;2022-07-03T15:20:47;6.85;;;4.55;;
25381;SDS011;16307;42.896;20.874;2022-07-03T15:23:35;6.20;;;4.70;;
25381;SDS011;16307;42.896;20.874;2022-07-03T15:26:21;9.98;;;6.15;;
25381;SDS011;16307;42.896;20.874;2022-07-03T15:29:08;7.43;;;4.75;;
25381;SDS011;16307;42.896;20.874;2022-07-03T15:31:55;4.20;;;3.80;;
25381;SDS011;16307;42.896;20.874;2022-07-03T15:34:46;5.20;;;4.22;;
25381;SDS011;16307;42.896;20.874;2022-07-03T15:40:34;6.68;;;4.03;;
25381;SDS011;16307;42.896;20.874;2022-07-03T15:43:35;8.60;;;3.78;;
25381;SDS011;16307;42.896;20.874;2022-07-03T15:50:05;5.88;;;3.95;;
25381;SDS011;16307;42.896;20.874;2022-07-03T15:52:51;6.95;;;4.10;;
25381;SDS011;16307;42.896;20.874;2022-07-03T15:55:39;7.45;;;4.43;;
25381;SDS011;16307;42.896;20.874;2022-07-03T15:58:31;5.55;;;3.88;;
25381;SDS011;16307;42.896;20.874;2022-07-03T16:01:27;9.73;;;4.25;;
25381;SDS011;16307;42.896;20.874;2022-07-03T16:04:38;6.53;;;4.50;;
25381;SDS011;16307;42.896;20.874;2022-07-03T16:07:26;7.97;;;4.10;;
25381;SDS011;16307;42.896;20.874;2022-07-03T16:10:13;6.35;;;4.13;;
25381;SDS011;16307;42.896;20.874;2022-07-03T16:12:59;6.70;;;4.65;;
25381;SDS011;16307;42.896;20.874;2022-07-03T16:15:46;6.95;;;4.70;;
25381;SDS011;16307;42.896;20.874;2022-07-03T16:18:32;4.72;;;4.00;;
25381;SDS011;16307;42.896;20.874;2022-07-03T16:21:19;12.45;;;5.00;;
25381;SDS011;16307;42.896;20.874;2022-07-03T16:24:08;6.97;;;4.20;;
25381;SDS011;16307;42.896;20.874;2022-07-03T16:26:54;5.88;;;4.60;;
25381;SDS011;16307;42.896;20.874;2022-07-03T16:29:42;8.48;;;4.93;;
25381;SDS011;16307;42.896;20.874;2022-07-03T16:32:39;7.65;;;4.35;;
25381;SDS011;16307;42.896;20.874;2022-07-03T16:35:27;5.60;;;4.55;;
25381;SDS011;16307;42.896;20.874;2022-07-03T16:38:35;5.60;;;4.43;;
25381;SDS011;16307;42.896;20.874;2022-07-03T16:41:26;7.10;;;4.50;;
25381;SDS011;16307;42.896;20.874;2022-07-03T16:47:02;13.23;;;5.03;;
25381;SDS011;16307;42.896;20.874;2022-07-03T16:49:49;7.70;;;5.40;;
25381;SDS011;16307;42.896;20.874;2022-07-03T16:52:44;10.47;;;5.43;;
25381;SDS011;16307;42.896;20.874;2022-07-03T16:55:32;8.77;;;5.40;;
25381;SDS011;16307;42.896;20.874;2022-07-03T16:58:18;9.10;;;5.68;;
25381;SDS011;16307;42.896;20.874;2022-07-03T17:01:06;8.43;;;5.45;;
25381;SDS011;16307;42.896;20.874;2022-07-03T17:03:55;9.18;;;5.53;;
25381;SDS011;16307;42.896;20.874;2022-07-03T17:06:41;7.05;;;6.03;;
25381;SDS011;16307;42.896;20.874;2022-07-03T17:09:27;9.57;;;6.40;;
25381;SDS011;16307;42.896;20.874;2022-07-03T17:12:14;12.82;;;6.78;;
25381;SDS011;16307;42.896;20.874;2022-07-03T17:15:00;8.55;;;6.20;;
25381;SDS011;16307;42.896;20.874;2022-07-03T17:17:51;9.68;;;5.75;;
25381;SDS011;16307;42.896;20.874;2022-07-03T17:20:45;9.23;;;7.00;;
25381;SDS011;16307;42.896;20.874;2022-07-03T17:23:31;9.13;;;6.72;;
25381;SDS011;16307;42.896;20.874;2022-07-03T17:26:18;9.38;;;5.93;;
25381;SDS011;16307;42.896;20.874;2022-07-03T17:29:06;6.18;;;5.50;;
25381;SDS011;16307;42.896;20.874;2022-07-03T17:31:58;7.72;;;5.65;;
25381;SDS011;16307;42.896;20.874;2022-07-03T17:34:48;9.57;;;5.68;;
25381;SDS011;16307;42.896;20.874;2022-07-03T17:37:35;10.45;;;5.63;;
25381;SDS011;16307;42.896;20.874;2022-07-03T17:40:23;7.13;;;5.38;;
25381;SDS011;16307;42.896;20.874;2022-07-03T17:43:09;11.77;;;8.38;;
25381;SDS011;16307;42.896;20.874;2022-07-03T17:45:57;18.80;;;10.20;;
25381;SDS011;16307;42.896;20.874;2022-07-03T17:48:45;24.00;;;13.45;;
25381;SDS011;16307;42.896;20.874;2022-07-03T17:51:31;25.10;;;15.02;;
25381;SDS011;16307;42.896;20.874;2022-07-03T17:54:17;24.90;;;15.02;;
25381;SDS011;16307;42.896;20.874;2022-07-03T17:57:04;63.33;;;36.85;;
25381;SDS011;16307;42.896;20.874;2022-07-03T18:00:12;60.95;;;33.80;;
25381;SDS011;16307;42.896;20.874;2022-07-03T18:02:59;74.00;;;38.45;;
25381;SDS011;16307;42.896;20.874;2022-07-03T18:05:46;60.05;;;32.88;;
25381;SDS011;16307;42.896;20.874;2022-07-03T18:08:43;54.97;;;30.58;;
25381;SDS011;16307;42.896;20.874;2022-07-03T18:11:41;54.60;;;27.92;;
25381;SDS011;16307;42.896;20.874;2022-07-03T18:17:31;48.92;;;25.45;;
25381;SDS011;16307;42.896;20.874;2022-07-03T18:20:19;47.22;;;26.77;;
25381;SDS011;16307;42.896;20.874;2022-07-03T18:23:05;46.40;;;24.92;;
25381;SDS011;16307;42.896;20.874;2022-07-03T18:25:52;30.23;;;16.92;;
25381;SDS011;16307;42.896;20.874;2022-07-03T18:28:42;22.23;;;10.50;;
25381;SDS011;16307;42.896;20.874;2022-07-03T18:31:30;15.32;;;8.45;;
25381;SDS011;16307;42.896;20.874;2022-07-03T18:34:18;11.75;;;8.15;;
25381;SDS011;16307;42.896;20.874;2022-07-03T18:37:07;30.70;;;16.60;;
25381;SDS011;16307;42.896;20.874;2022-07-03T18:39:54;27.67;;;16.10;;
25381;SDS011;16307;42.896;20.874;2022-07-03T18:42:43;21.38;;;12.82;;
25381;SDS011;16307;42.896;20.874;2022-07-03T18:45:30;19.25;;;10.55;;